Time;durP1;ratioP1;P1;durP2;ratioP2;P2;SDS_P1;SDS_P2;PMS_P1;PMS_P2;Temp;Humidity;BMP_temperature;BMP_pressure;BME280_temperature;BME280_humidity;BME280_pressure;Samples;Min_cycle;Max_cycle;Signal;HPM_P1;HPM_P2
2022/11/19 00:00:57;;;;;;;13.05;9.73;;;;;;;2.74;74.66;99509.95;1728310;80;22483;-74
2022/11/19 00:03:23;;;;;;;13.80;9.53;;;;;;;2.73;74.73;99507.84;1733049;82;21046;-72
2022/11/19 00:05:50;;;;;;;12.73;8.83;;;;;;;2.75;74.73;99506.27;1722037;80;21954;-73
2022/11/19 00:08:18;;;;;;;11.22;8.00;;;;;;;2.79;74.74;99498.18;1729493;81;21068;-72
2022/11/19 00:10:46;;;;;;;11.40;8.48;;;;;;;2.78;74.76;99493.42;1730889;81;21024;-72
2022/11/19 00:13:13;;;;;;;11.48;8.00;;;;;;;2.82;74.68;99484.01;1727919;82;21104;-71
2022/11/19 00:15:41;;;;;;;12.23;7.72;;;;;;;2.83;74.79;99483.52;1709360;82;21059;-72
2022/11/19 00:18:08;;;;;;;11.15;7.92;;;;;;;2.86;74.74;99480.39;1717056;82;21539;-72
2022/11/19 00:20:35;;;;;;;9.58;7.35;;;;;;;2.89;74.72;99477.28;1740282;82;21056;-72
2022/11/19 00:23:02;;;;;;;11.50;8.03;;;;;;;2.91;74.67;99471.28;1704372;81;21031;-73
2022/11/19 00:25:30;;;;;;;9.73;7.05;;;;;;;2.85;74.65;99460.86;1710290;82;21660;-73
2022/11/19 00:27:58;;;;;;;10.48;7.67;;;;;;;2.85;74.66;99454.27;1728113;81;21090;-73
2022/11/19 00:30:25;;;;;;;11.28;8.08;;;;;;;2.91;74.54;99439.63;1746096;82;21241;-74
2022/11/19 00:32:51;;;;;;;9.25;7.10;;;;;;;2.86;74.62;99436.08;1758950;80;21000;-73
2022/11/19 00:35:18;;;;;;;11.95;8.28;;;;;;;2.84;74.67;99429.73;1763180;80;21078;-73
2022/11/19 00:37:46;;;;;;;10.82;8.00;;;;;;;2.88;74.58;99426.11;1774513;80;21166;-73
2022/11/19 00:40:13;;;;;;;10.72;7.62;;;;;;;2.91;74.62;99421.16;1762750;80;21585;-73
2022/11/19 00:43:45;;;;;;;11.63;8.10;;;;;;;2.92;74.67;99413.52;1742986;80;21147;-73
2022/11/19 00:45:09;;;;;;;11.30;8.53;;;;;;;2.90;74.68;99417.45;1741109;82;21526;-72
2022/11/19 00:47:37;;;;;;;12.53;8.73;;;;;;;2.89;74.65;99413.99;1735442;81;21038;-72
2022/11/19 00:50:04;;;;;;;12.50;8.40;;;;;;;2.88;74.69;99415.03;1723181;80;21506;-72
2022/11/19 00:52:31;;;;;;;13.88;8.50;;;;;;;2.88;74.71;99408.45;1713797;81;21062;-73
2022/11/19 00:54:58;;;;;;;13.22;9.33;;;;;;;2.90;74.75;99409.55;1739944;81;21181;-72
2022/11/19 00:57:24;;;;;;;12.60;8.95;;;;;;;2.88;74.84;99407.64;1703732;82;21090;-72
2022/11/19 00:59:51;;;;;;;12.07;8.40;;;;;;;2.93;74.80;99402.45;1710702;81;21098;-72
2022/11/19 01:02:17;;;;;;;12.50;8.35;;;;;;;2.94;74.81;99399.59;1719962;81;21008;-74
2022/11/19 01:04:45;;;;;;;12.90;8.75;;;;;;;2.98;74.70;99398.61;1703449;82;21528;-71
2022/11/19 01:07:11;;;;;;;12.95;8.75;;;;;;;2.94;74.68;99389.56;1714681;82;21584;-72
2022/11/19 01:09:38;;;;;;;12.93;8.95;;;;;;;2.91;74.71;99389.52;1711029;81;21129;-71
2022/11/19 01:12:04;;;;;;;12.25;8.60;;;;;;;2.91;74.77;99390.83;1706265;81;21098;-71
2022/11/19 01:14:31;;;;;;;13.05;8.93;;;;;;;2.93;74.78;99389.27;1741220;81;21541;-71
2022/11/19 01:16:58;;;;;;;12.05;8.48;;;;;;;2.95;74.82;99383.25;1726873;81;21035;-72
2022/11/19 01:19:25;;;;;;;13.62;8.68;;;;;;;2.96;74.76;99372.48;1721624;82;21083;-71
2022/11/19 01:21:52;;;;;;;13.78;9.18;;;;;;;2.93;74.84;99376.91;1703586;81;21049;-72
2022/11/19 01:24:19;;;;;;;12.50;8.28;;;;;;;2.92;74.82;99375.80;1723770;81;21034;-72
2022/11/19 01:26:45;;;;;;;13.62;9.03;;;;;;;2.95;74.79;99368.74;1722430;81;21103;-73
2022/11/19 01:29:12;;;;;;;13.15;8.53;;;;;;;2.97;74.76;99370.11;1707522;82;20987;-74
2022/11/19 01:31:39;;;;;;;12.70;9.30;;;;;;;2.98;74.73;99371.70;1713953;82;21222;-74
2022/11/19 01:34:06;;;;;;;13.70;9.00;;;;;;;2.97;74.75;99364.84;1731249;82;21055;-73
2022/11/19 01:36:33;;;;;;;14.23;8.78;;;;;;;3.00;74.74;99361.73;1729618;82;21059;-74
2022/11/19 01:39:00;;;;;;;10.95;7.72;;;;;;;3.03;74.66;99367.86;1699109;81;21790;-75
2022/11/19 01:41:29;;;;;;;12.75;8.93;;;;;;;3.04;74.66;99358.89;1707630;82;21050;-76
2022/11/19 01:44:05;;;;;;;13.00;8.55;;;;;;;3.05;74.62;99348.62;1703708;82;21309;-75
2022/11/19 01:46:35;;;;;;;12.70;8.63;;;;;;;3.08;74.67;99347.88;1728742;82;21038;-76
2022/11/19 01:49:16;;;;;;;12.30;8.33;;;;;;;3.07;74.67;99339.69;1732563;82;21040;-75
2022/11/19 01:51:50;;;;;;;11.70;7.58;;;;;;;3.03;74.68;99331.45;1732462;82;21560;-75
2022/11/19 01:54:36;;;;;;;11.93;8.10;;;;;;;3.09;74.58;99335.75;1733351;82;21108;-75
2022/11/19 01:57:05;;;;;;;11.63;7.87;;;;;;;3.02;74.75;99325.34;1733455;82;21165;-74
2022/11/19 01:59:32;;;;;;;11.95;7.95;;;;;;;3.01;74.83;99323.75;1732958;81;21496;-74
2022/11/19 02:01:59;;;;;;;10.32;7.30;;;;;;;3.01;74.83;99317.16;1727676;81;21137;-75
2022/11/19 02:04:26;;;;;;;11.57;7.58;;;;;;;3.02;74.82;99316.11;1733485;81;21106;-74
2022/11/19 02:06:53;;;;;;;9.93;7.03;;;;;;;3.02;74.85;99314.80;1734017;81;21007;-74
2022/11/19 02:09:20;;;;;;;10.93;7.42;;;;;;;3.03;74.88;99315.63;1726781;82;21248;-76
2022/11/19 02:12:12;;;;;;;12.65;6.90;;;;;;;3.06;74.87;99304.59;1723695;81;21041;-76
2022/11/19 02:15:01;;;;;;;11.45;7.33;;;;;;;3.04;74.90;99302.18;1732294;81;21063;-75
2022/11/19 02:17:59;;;;;;;11.73;6.85;;;;;;;3.03;74.91;99297.95;1733849;82;20976;-74
2022/11/19 02:20:35;;;;;;;10.23;6.80;;;;;;;3.13;74.78;99295.20;1732397;82;21058;-73
2022/11/19 02:23:31;;;;;;;9.70;6.42;;;;;;;3.10;74.81;99293.05;1730382;81;21205;-74
2022/11/19 02:26:44;;;;;;;10.40;6.55;;;;;;;3.09;74.87;99289.58;1732247;82;21038;-73
2022/11/19 02:29:19;;;;;;;10.23;6.28;;;;;;;3.07;74.84;99279.80;1716480;82;22529;-74
2022/11/19 02:32:07;;;;;;;9.68;6.30;;;;;;;3.11;74.79;99275.64;1738154;81;20988;-77
2022/11/19 02:34:48;;;;;;;8.80;5.90;;;;;;;3.13;74.83;99278.06;1739223;81;21013;-75
2022/11/19 02:37:29;;;;;;;8.40;5.97;;;;;;;3.12;74.80;99277.76;1724877;82;21135;-74
2022/11/19 02:40:10;;;;;;;8.90;5.72;;;;;;;3.11;74.78;99278.28;1719264;81;20952;-75
2022/11/19 02:42:45;;;;;;;9.18;6.40;;;;;;;3.21;74.67;99278.97;1739368;80;21065;-75
2022/11/19 02:45:29;;;;;;;7.83;5.65;;;;;;;3.16;74.73;99273.59;1698680;82;21435;-75
2022/11/19 02:48:02;;;;;;;8.63;5.87;;;;;;;3.14;74.73;99275.69;1716387;82;21100;-75
2022/11/19 02:50:39;;;;;;;9.93;6.00;;;;;;;3.17;74.76;99277.85;1731141;81;21173;-75
2022/11/19 02:53:05;;;;;;;8.75;5.90;;;;;;;3.21;74.71;99284.24;1732190;82;21042;-74
2022/11/19 02:55:34;;;;;;;8.63;5.90;;;;;;;3.23;74.66;99291.41;1721814;82;20993;-74
2022/11/19 02:58:09;;;;;;;8.83;5.70;;;;;;;3.02;75.15;99292.37;1728949;81;20972;-73
2022/11/19 03:06:19;;;;;;;7.05;5.00;;;;;;;3.17;74.71;99286.56;1705527;82;20972;-73
2022/11/19 03:08:46;;;;;;;7.35;5.10;;;;;;;3.21;74.56;99281.08;1731682;81;21024;-73
2022/11/19 03:11:25;;;;;;;6.92;4.42;;;;;;;3.18;74.63;99282.08;1707324;82;20980;-72
2022/11/19 03:17:20;;;;;;;8.60;5.25;;;;;;;3.19;74.63;99269.98;1732100;82;20910;-75
2022/11/19 03:19:50;;;;;;;;;;;;;;;3.31;74.40;99261.97;1735694;82;21025;-75
2022/11/19 03:22:40;;;;;;;6.53;4.22;;;;;;;3.25;74.50;99268.20;1724142;82;20166;-75
2022/11/19 03:25:26;;;;;;;6.55;4.45;;;;;;;3.22;74.52;99258.92;1723451;81;21557;-76
2022/11/19 03:27:58;;;;;;;6.60;4.72;;;;;;;3.20;74.55;99258.38;1718392;81;21461;-76
2022/11/19 03:30:27;;;;;;;5.85;3.92;;;;;;;3.23;74.60;99253.16;1749055;79;21138;-75
2022/11/19 03:33:09;;;;;;;6.20;4.12;;;;;;;3.25;74.59;99252.38;1732261;81;21033;-76
2022/11/19 03:35:45;;;;;;;6.30;4.08;;;;;;;3.27;74.54;99255.05;1729962;81;21076;-76
2022/11/19 03:38:16;;;;;;;6.75;4.30;;;;;;;3.23;74.54;99250.52;1733303;81;20930;-77
2022/11/19 03:40:43;;;;;;;6.40;4.60;;;;;;;3.22;74.56;99248.89;1720618;82;21181;-78
2022/11/19 03:43:12;;;;;;;6.20;4.22;;;;;;;3.23;74.55;99248.67;1704663;83;21173;-78
2022/11/19 03:45:43;;;;;;;6.67;4.40;;;;;;;3.24;74.59;99243.66;1704739;83;21015;-77
2022/11/19 03:48:14;;;;;;;6.25;4.03;;;;;;;3.29;74.45;99237.65;1704648;83;21074;-78
2022/11/19 03:50:50;;;;;;;5.58;3.92;;;;;;;3.27;74.50;99227.88;1718433;82;21130;-77
2022/11/19 03:53:16;;;;;;;6.25;4.12;;;;;;;3.26;74.47;99221.01;1733222;81;21033;-78
2022/11/19 03:56:00;;;;;;;5.33;3.15;;;;;;;3.28;74.47;99221.55;1733069;81;21158;-77
2022/11/19 03:58:27;;;;;;;5.85;3.80;;;;;;;3.30;74.47;99215.52;1730491;81;21579;-76
2022/11/19 04:00:53;;;;;;;5.60;3.72;;;;;;;3.31;74.43;99203.91;1733109;82;21012;-76
2022/11/19 04:03:20;;;;;;;6.08;4.05;;;;;;;3.33;74.36;99202.37;1733196;82;21050;-75
2022/11/19 04:05:47;;;;;;;5.75;4.00;;;;;;;3.31;74.29;99189.92;1733178;81;20941;-77
2022/11/19 04:08:14;;;;;;;6.20;4.30;;;;;;;3.34;74.30;99181.52;1725136;81;21170;-75
2022/11/19 04:10:41;;;;;;;6.72;4.70;;;;;;;3.37;74.20;99169.16;1704571;83;21059;-74
2022/11/19 04:13:09;;;;;;;7.03;4.45;;;;;;;3.38;74.04;99161.52;1704658;83;21156;-73
2022/11/19 04:15:36;;;;;;;6.55;4.75;;;;;;;3.39;74.10;99157.82;1704640;82;21054;-74
2022/11/19 04:18:03;;;;;;;6.37;4.25;;;;;;;3.43;73.86;99161.06;1718897;82;21663;-73
2022/11/19 04:20:31;;;;;;;6.30;4.30;;;;;;;3.40;73.89;99158.91;1732881;82;21325;-74
2022/11/19 04:22:57;;;;;;;5.92;4.08;;;;;;;3.40;73.85;99156.27;1733205;82;20946;-73
2022/11/19 04:25:24;;;;;;;5.55;4.00;;;;;;;3.44;73.75;99163.18;1728911;81;21462;-73
2022/11/19 04:27:51;;;;;;;5.22;3.42;;;;;;;3.40;73.70;99166.83;1704608;83;21019;-73
2022/11/19 04:30:17;;;;;;;7.12;4.53;;;;;;;3.43;73.62;99192.74;1704572;83;21055;-73
2022/11/19 04:32:44;;;;;;;5.35;3.65;;;;;;;3.44;73.67;99199.61;1726030;82;21916;-74
2022/11/19 04:35:12;;;;;;;5.53;3.98;;;;;;;3.48;73.67;99203.88;1705321;83;21431;-73
2022/11/19 04:37:39;;;;;;;6.75;4.47;;;;;;;3.49;73.61;99198.90;1694348;84;21019;-73
2022/11/19 04:40:08;;;;;;;5.75;4.03;;;;;;;3.50;73.56;99192.56;1697521;83;21668;-73
2022/11/19 04:42:34;;;;;;;6.22;4.50;;;;;;;3.53;73.48;99195.52;1718568;83;21568;-72
2022/11/19 04:45:01;;;;;;;6.45;4.37;;;;;;;3.51;73.51;99197.59;1696846;83;21542;-73
2022/11/19 04:47:28;;;;;;;7.17;4.67;;;;;;;3.56;73.39;99204.00;1714934;81;20977;-73
2022/11/19 04:49:54;;;;;;;7.28;4.42;;;;;;;3.49;73.46;99204.97;1719932;82;21069;-72
2022/11/19 04:52:21;;;;;;;6.22;4.08;;;;;;;3.48;73.46;99205.99;1712709;82;21063;-73
2022/11/19 04:54:48;;;;;;;6.37;4.62;;;;;;;3.48;73.47;99202.03;1700831;83;21031;-72
2022/11/19 04:57:15;;;;;;;6.17;4.40;;;;;;;3.56;73.34;99202.16;1694565;84;21055;-71
2022/11/19 04:59:43;;;;;;;5.03;3.85;;;;;;;3.51;73.45;99213.43;1695037;82;21145;-72
2022/11/19 05:02:09;;;;;;;4.70;3.47;;;;;;;3.53;73.46;99211.88;1701442;83;21019;-71
2022/11/19 05:04:36;;;;;;;4.72;3.33;;;;;;;3.53;73.48;99208.72;1692810;84;20992;-72
2022/11/19 05:07:03;;;;;;;4.65;3.22;;;;;;;3.55;73.33;99218.22;1693850;81;21011;-73
2022/11/19 05:09:30;;;;;;;5.72;3.47;;;;;;;3.53;73.30;99223.77;1725800;82;21820;-73
2022/11/19 05:11:57;;;;;;;5.85;3.58;;;;;;;3.50;73.32;99219.76;1718114;82;21059;-73
2022/11/19 05:14:23;;;;;;;4.42;3.25;;;;;;;3.49;73.27;99204.97;1715095;83;20967;-72
2022/11/19 05:16:50;;;;;;;4.72;3.30;;;;;;;3.48;73.28;99206.52;1714887;83;21007;-73
2022/11/19 05:19:16;;;;;;;4.87;3.37;;;;;;;3.45;73.28;99207.80;1723886;80;21070;-72
2022/11/19 05:21:44;;;;;;;5.10;3.40;;;;;;;3.44;73.36;99210.69;1740530;80;22083;-72
2022/11/19 05:24:11;;;;;;;4.15;2.75;;;;;;;3.50;73.34;99213.16;1765039;81;20967;-72
2022/11/19 05:26:39;;;;;;;5.00;3.52;;;;;;;3.50;73.32;99211.05;1764627;80;20976;-73
2022/11/19 05:29:06;;;;;;;4.70;3.20;;;;;;;3.49;73.33;99212.89;1741121;81;21424;-72
2022/11/19 05:31:34;;;;;;;5.65;3.87;;;;;;;3.49;73.29;99213.42;1733608;82;21117;-72
2022/11/19 05:34:00;;;;;;;4.83;3.45;;;;;;;3.47;73.21;99211.00;1713286;83;21227;-71
2022/11/19 05:36:27;;;;;;;4.85;3.35;;;;;;;3.45;73.21;99209.11;1713092;83;21063;-72
2022/11/19 05:38:54;;;;;;;4.78;3.40;;;;;;;3.46;73.25;99214.70;1713554;82;21122;-72
2022/11/19 05:41:20;;;;;;;5.40;3.77;;;;;;;3.46;73.25;99217.33;1713442;83;21562;-71
2022/11/19 05:43:47;;;;;;;6.12;4.50;;;;;;;3.43;73.26;99217.02;1713199;83;21103;-71
2022/11/19 05:46:13;;;;;;;6.03;4.62;;;;;;;3.43;73.29;99220.45;1717326;80;21777;-71
2022/11/19 05:48:39;;;;;;;6.40;4.55;;;;;;;3.46;73.36;99219.17;1723027;82;21023;-71
2022/11/19 05:51:06;;;;;;;6.17;4.70;;;;;;;3.48;73.39;99219.72;1734997;82;21043;-73
2022/11/19 05:53:32;;;;;;;6.50;4.67;;;;;;;3.61;73.30;99224.65;1723012;82;21066;-72
2022/11/19 05:55:59;;;;;;;6.62;4.95;;;;;;;3.71;73.10;99220.02;1729593;82;21042;-71
2022/11/19 05:58:25;;;;;;;6.25;4.55;;;;;;;3.67;73.15;99220.24;1739564;82;21787;-71
2022/11/19 06:00:54;;;;;;;7.28;5.10;;;;;;;3.70;73.20;99231.64;1743608;82;21089;-73
2022/11/19 06:03:21;;;;;;;7.03;4.87;;;;;;;3.68;73.08;99230.55;1736349;80;21011;-73
2022/11/19 06:17:37;;;;;;;7.50;5.37;;;;;;;4.29;72.23;99239.75;1794521;78;23151;-74
2022/11/19 06:20:09;;;;;;;5.67;4.20;;;;;;;4.28;72.01;99241.30;1730851;80;21003;-73
2022/11/19 06:22:37;;;;;;;6.05;4.35;;;;;;;4.23;71.76;99252.09;1762441;80;21563;-73
2022/11/19 06:25:06;;;;;;;5.70;4.28;;;;;;;4.15;71.49;99250.44;1783097;78;20974;-73
2022/11/19 06:27:33;;;;;;;5.83;4.12;;;;;;;4.04;71.42;99250.81;1771567;80;20995;-73
2022/11/19 06:30:00;;;;;;;5.80;3.67;;;;;;;3.96;71.39;99254.69;1741300;80;20972;-73
2022/11/19 06:32:27;;;;;;;4.92;3.47;;;;;;;3.97;71.35;99259.45;1740338;80;20994;-72
2022/11/19 06:34:55;;;;;;;5.87;3.62;;;;;;;3.92;71.47;99260.20;1738092;80;20947;-72
2022/11/19 06:37:22;;;;;;;5.83;3.90;;;;;;;3.89;71.45;99266.49;1715386;82;20955;-71
2022/11/19 06:39:48;;;;;;;5.15;3.47;;;;;;;3.90;71.34;99274.16;1757804;81;21528;-72
2022/11/19 06:45:01;;;;;;;5.83;4.08;;;;;;;3.86;71.36;99278.86;1761826;81;21089;-72
2022/11/19 06:47:31;;;;;;;6.22;4.12;;;;;;;3.82;71.38;99282.52;1761652;81;22090;-71
2022/11/19 06:49:59;;;;;;;6.12;3.92;;;;;;;3.79;71.43;99279.04;1761951;81;21066;-72
2022/11/19 06:52:26;;;;;;;7.20;4.75;;;;;;;3.79;71.48;99281.68;1761620;81;21054;-72
2022/11/19 06:54:52;;;;;;;5.62;3.77;;;;;;;3.80;71.51;99287.76;1757652;80;20963;-73
2022/11/19 06:57:19;;;;;;;6.05;3.80;;;;;;;3.74;71.54;99280.28;1742320;80;20952;-72
2022/11/19 06:59:47;;;;;;;7.03;4.67;;;;;;;3.69;71.58;99284.98;1745340;80;21009;-72
2022/11/19 07:02:14;;;;;;;5.90;3.90;;;;;;;3.65;71.65;99294.44;1708280;82;21036;-71
2022/11/19 07:04:42;;;;;;;7.33;4.12;;;;;;;3.65;71.77;99297.56;1721073;81;21004;-71
2022/11/19 07:07:09;;;;;;;6.20;3.72;;;;;;;3.72;71.80;99293.73;1725975;82;21004;-72
2022/11/19 07:09:36;;;;;;;6.72;3.55;;;;;;;3.70;71.85;99301.09;1726046;81;20999;-71
2022/11/19 07:12:03;;;;;;;6.72;4.08;;;;;;;3.69;71.96;99292.90;1720824;81;21079;-73
2022/11/19 07:14:30;;;;;;;5.50;3.22;;;;;;;3.73;72.07;99291.89;1741502;80;21057;-73
2022/11/19 07:16:56;;;;;;;5.15;3.47;;;;;;;3.75;72.08;99303.81;1767593;80;21022;-72
2022/11/19 07:19:23;;;;;;;6.05;3.55;;;;;;;3.76;72.08;99304.61;1723105;83;20982;-74
2022/11/19 07:21:49;;;;;;;6.42;3.90;;;;;;;3.79;72.15;99305.45;1709981;82;21542;-72
2022/11/19 07:24:17;;;;;;;4.78;3.05;;;;;;;3.86;72.21;99311.36;1729120;82;21186;-72
2022/11/19 07:26:45;;;;;;;5.65;3.15;;;;;;;3.93;72.20;99314.62;1751460;80;21621;-71
2022/11/19 07:29:13;;;;;;;6.20;3.42;;;;;;;4.02;72.08;99320.82;1716756;82;20971;-72
2022/11/19 07:31:41;;;;;;;4.97;3.30;;;;;;;4.04;72.00;99329.28;1711882;83;21027;-72
2022/11/19 07:34:08;;;;;;;5.25;3.10;;;;;;;4.09;71.94;99328.05;1753924;81;20994;-72
2022/11/19 07:36:36;;;;;;;5.58;3.42;;;;;;;4.16;71.90;99327.34;1756003;81;21145;-72
2022/11/19 07:39:06;;;;;;;5.10;3.17;;;;;;;4.15;71.72;99321.26;1729507;81;21608;-72
2022/11/19 07:44:17;;;;;;;5.67;3.60;;;;;;;4.13;71.50;99327.30;1723602;81;21035;-72
2022/11/19 07:46:44;;;;;;;6.67;4.17;;;;;;;4.18;71.52;99329.23;1735151;80;21148;-72
2022/11/19 07:49:10;;;;;;;7.60;5.00;;;;;;;4.23;71.46;99331.39;1730189;80;21170;-73
2022/11/19 09:24:36;;;;;;;9.67;7.47;;;;;;;3.94;76.65;99505.63;1786884;80;22808;-71
2022/11/19 09:27:03;;;;;;;9.55;7.37;;;;;;;3.94;75.60;99503.78;1764110;81;20875;-72
2022/11/19 09:29:30;;;;;;;9.63;7.50;;;;;;;3.96;74.93;99501.70;1758193;81;21138;-72
2022/11/19 09:31:57;;;;;;;10.45;7.03;;;;;;;4.02;74.25;99504.45;1731644;82;21034;-72
2022/11/19 09:34:24;;;;;;;10.58;7.55;;;;;;;4.07;73.72;99509.27;1760770;81;20963;-70
2022/11/19 09:36:51;;;;;;;9.83;7.08;;;;;;;4.11;72.99;99512.23;1731926;82;20951;-72
2022/11/19 09:39:18;;;;;;;9.65;7.15;;;;;;;4.18;72.64;99515.02;1760976;81;21081;-71
2022/11/19 09:42:05;;;;;;;9.08;7.03;;;;;;;4.25;71.96;99521.99;1758461;81;21272;-71
2022/11/19 09:45:15;;;;;;;9.58;8.03;;;;;;;4.27;71.23;99530.47;1737722;81;20975;-71
2022/11/19 09:48:03;;;;;;;10.78;8.10;;;;;;;4.33;71.07;99545.37;1731642;82;21038;-70
2022/11/19 09:50:36;;;;;;;10.75;8.53;;;;;;;4.29;70.37;99555.62;1761159;81;21548;-71
2022/11/19 09:53:14;;;;;;;13.18;9.35;;;;;;;4.27;70.11;99545.00;1731373;82;21494;-71
2022/11/19 09:55:44;;;;;;;13.15;9.48;;;;;;;4.28;69.91;99544.78;1761363;81;21215;-73
2022/11/19 09:58:34;;;;;;;12.85;9.28;;;;;;;4.30;69.70;99545.84;1731285;82;21046;-71
2022/11/19 10:01:00;;;;;;;13.18;9.90;;;;;;;4.31;69.56;99535.05;1761246;81;21030;-72
2022/11/19 10:03:26;;;;;;;11.73;9.00;;;;;;;4.41;69.22;99532.56;1731385;82;21059;-72
2022/11/19 10:06:26;;;;;;;13.20;9.45;;;;;;;4.34;69.24;99540.35;1761042;81;21069;-72
2022/11/19 10:09:11;;;;;;;10.60;8.25;;;;;;;4.32;68.98;99547.22;1760955;81;21418;-72
2022/11/19 10:11:50;;;;;;;11.20;7.97;;;;;;;4.30;68.87;99556.42;1731608;82;21517;-72
2022/11/19 10:14:42;;;;;;;11.75;8.50;;;;;;;4.27;68.82;99562.98;1729052;81;21014;-71
2022/11/19 10:17:36;;;;;;;11.28;8.58;;;;;;;4.26;68.71;99570.64;1723146;83;21561;-73
2022/11/19 10:20:52;;;;;;;11.08;9.05;;;;;;;4.27;68.76;99572.76;1721476;83;21020;-73
2022/11/19 10:23:35;;;;;;;15.50;9.85;;;;;;;4.34;68.79;99575.52;1722551;83;21164;-72
2022/11/19 10:26:06;;;;;;;11.68;9.55;;;;;;;4.41;68.89;99566.93;1722322;83;21026;-72
2022/11/19 10:28:35;;;;;;;13.10;9.75;;;;;;;4.49;68.62;99564.92;1721998;83;21560;-72
2022/11/19 10:31:21;;;;;;;12.50;9.68;;;;;;;4.53;68.64;99573.97;1722262;83;21085;-73
2022/11/19 10:34:08;;;;;;;12.80;9.90;;;;;;;4.56;68.44;99585.39;1721847;83;20959;-73
2022/11/19 10:36:45;;;;;;;12.60;9.88;;;;;;;4.54;68.16;99586.97;1722200;83;21150;-73
2022/11/19 10:39:23;;;;;;;11.30;9.13;;;;;;;4.62;68.13;99597.66;1696077;83;21101;-72
2022/11/19 10:42:27;;;;;;;12.00;9.78;;;;;;;4.80;67.76;99598.70;1693278;84;21520;-70
2022/11/19 10:45:17;;;;;;;13.95;9.93;;;;;;;4.92;67.23;99592.01;1693117;84;21023;-71
2022/11/19 10:48:03;;;;;;;14.63;10.53;;;;;;;4.96;67.23;99599.73;1692996;84;21124;-73
2022/11/19 10:50:30;;;;;;;15.38;10.98;;;;;;;4.99;66.60;99611.69;1693220;84;21279;-72
2022/11/19 10:53:19;;;;;;;15.05;10.60;;;;;;;4.98;66.53;99616.70;1692830;84;21086;-73
2022/11/19 10:55:58;;;;;;;13.40;9.80;;;;;;;4.97;66.40;99616.41;1694721;83;21450;-73
2022/11/19 10:58:36;;;;;;;9.55;8.15;;;;;;;4.97;66.44;99626.99;1692839;84;21030;-73
2022/11/19 11:01:04;;;;;;;10.18;7.90;;;;;;;4.93;66.05;99633.30;1693265;84;20977;-73
2022/11/19 11:03:45;;;;;;;9.78;7.78;;;;;;;4.80;65.94;99646.85;1692952;84;21257;-73
2022/11/19 11:06:12;;;;;;;10.20;7.75;;;;;;;4.76;65.95;99668.22;1693182;83;21523;-74
2022/11/19 11:08:51;;;;;;;10.68;8.18;;;;;;;4.59;66.11;99669.53;1697359;82;21075;-73
2022/11/19 11:14:50;;;;;;;11.33;8.45;;;;;;;4.42;66.36;99674.28;1677314;85;21683;-74
2022/11/19 11:16:46;;;;;;;11.83;8.60;;;;;;;4.08;67.12;99709.09;1681443;85;21178;-75
2022/11/19 11:19:18;;;;;;;12.33;8.30;;;;;;;4.06;67.57;99705.06;1680824;85;20956;-74
2022/11/19 11:21:45;;;;;;;;;;;;;;;4.13;67.58;99722.91;1684213;85;21146;-75
2022/11/19 11:24:12;;;;;;;10.60;8.35;;;;;;;4.08;67.83;99730.72;1680996;85;20151;-75
2022/11/19 11:26:39;;;;;;;9.78;7.97;;;;;;;4.10;67.85;99733.95;1681044;85;21548;-74
2022/11/19 11:29:18;;;;;;;10.53;8.18;;;;;;;4.13;67.95;99732.16;1697116;82;21145;-75
2022/11/19 11:31:46;;;;;;;10.50;8.35;;;;;;;4.15;67.75;99728.77;1731239;82;21061;-76
2022/11/19 11:34:37;;;;;;;9.58;7.87;;;;;;;4.16;67.53;99735.66;1732246;82;20963;-76
2022/11/19 11:37:05;;;;;;;9.13;7.42;;;;;;;4.13;67.41;99744.05;1732387;82;20967;-75
2022/11/19 11:39:37;;;;;;;9.00;6.90;;;;;;;4.05;67.29;99741.27;1732289;82;21015;-74
2022/11/19 11:42:04;;;;;;;8.33;6.60;;;;;;;4.00;66.95;99744.59;1732479;82;21227;-75
2022/11/19 11:44:33;;;;;;;8.00;6.78;;;;;;;4.00;66.81;99739.30;1732276;82;20931;-75
2022/11/19 11:47:18;;;;;;;9.25;7.20;;;;;;;3.98;66.59;99750.64;1690833;82;21083;-72
2022/11/19 11:49:48;;;;;;;8.88;7.42;;;;;;;4.03;66.41;99771.07;1681258;85;20972;-76
2022/11/19 11:52:35;;;;;;;10.50;7.45;;;;;;;3.90;66.50;99789.30;1681404;85;21430;-76
2022/11/19 11:55:27;;;;;;;8.28;6.97;;;;;;;3.79;66.91;99799.37;1681343;85;21314;-76
2022/11/19 11:57:57;;;;;;;8.98;7.12;;;;;;;3.77;67.27;99809.34;1681201;85;21022;-76
2022/11/19 12:00:32;;;;;;;8.33;6.60;;;;;;;3.72;67.29;99823.78;1681253;85;21028;-76
2022/11/19 12:03:14;;;;;;;9.10;7.12;;;;;;;3.72;67.21;99819.30;1682182;84;21739;-76
2022/11/19 12:06:12;;;;;;;8.80;6.65;;;;;;;3.73;66.97;99827.49;1706895;82;22571;-75
2022/11/19 12:09:06;;;;;;;9.18;7.03;;;;;;;3.70;66.61;99846.96;1693240;84;21116;-77
2022/11/19 12:11:53;;;;;;;8.18;6.25;;;;;;;3.58;66.33;99856.18;1681309;85;20969;-76
2022/11/19 12:14:28;;;;;;;8.03;6.37;;;;;;;3.56;66.40;99865.39;1681071;85;21116;-75
2022/11/19 12:17:04;;;;;;;8.90;6.65;;;;;;;3.53;66.40;99880.64;1681189;85;21436;-76
2022/11/19 12:19:57;;;;;;;8.20;6.67;;;;;;;3.51;66.48;99872.64;1682024;84;21545;-77
2022/11/19 12:22:48;;;;;;;9.43;7.30;;;;;;;3.48;66.58;99879.18;1680382;84;21128;-77
2022/11/19 12:25:32;;;;;;;9.58;6.83;;;;;;;3.42;66.42;99884.07;1681285;85;21063;-72
2022/11/19 12:28:15;;;;;;;9.70;7.60;;;;;;;3.36;66.33;99892.09;1681034;85;21045;-77
2022/11/19 12:31:12;;;;;;;10.10;7.55;;;;;;;3.43;66.57;99896.75;1681434;85;20993;-78
2022/11/19 12:34:12;;;;;;;10.53;7.80;;;;;;;3.40;66.94;99895.36;1680823;85;21031;-76
2022/11/19 12:37:01;;;;;;;10.88;7.70;;;;;;;3.45;67.15;99909.99;1682385;84;21913;-75
2022/11/19 12:39:52;;;;;;;10.98;8.18;;;;;;;3.39;66.85;99932.53;1677051;84;21042;-76
2022/11/19 12:42:36;;;;;;;10.38;8.28;;;;;;;3.39;66.97;99950.52;1681224;85;21514;-76
2022/11/19 12:45:29;;;;;;;9.53;7.83;;;;;;;3.32;67.29;99956.37;1678181;85;21510;-75
2022/11/19 12:48:24;;;;;;;10.38;7.87;;;;;;;3.34;67.41;99970.69;1681469;84;21551;-74
2022/11/19 12:50:59;;;;;;;9.18;7.30;;;;;;;3.29;67.33;99973.48;1681166;85;21962;-74
2022/11/19 12:53:56;;;;;;;8.73;6.75;;;;;;;3.31;67.36;99979.84;1682032;84;21007;-72
2022/11/19 12:56:40;;;;;;;8.20;6.35;;;;;;;3.29;67.18;100005.65;1681194;85;21054;-76
2022/11/19 12:59:36;;;;;;;8.73;6.85;;;;;;;3.27;66.64;99983.97;1676709;84;21063;-75
2022/11/19 13:02:07;;;;;;;10.08;7.15;;;;;;;3.24;66.69;99992.33;1681339;85;21042;-75
2022/11/19 13:04:40;;;;;;;8.95;7.22;;;;;;;3.23;66.61;100008.69;1681206;84;21056;-76
2022/11/19 13:07:24;;;;;;;;;;;;;;;3.25;66.69;100007.93;1683373;85;21515;-73
2022/11/19 13:10:15;;;;;;;10.18;6.95;;;;;;;3.16;66.02;100033.03;1680133;85;20431;-75
2022/11/19 13:12:50;;;;;;;11.18;7.95;;;;;;;3.21;66.17;100027.88;1680723;84;21098;-75
2022/11/19 13:15:22;;;;;;;10.30;8.23;;;;;;;3.16;66.61;100035.67;1680786;85;21066;-75
2022/11/19 13:17:51;;;;;;;11.60;8.47;;;;;;;3.03;67.14;100048.50;1680437;85;21157;-74
2022/11/19 13:20:48;;;;;;;11.57;8.80;;;;;;;3.13;67.14;100038.75;1681456;85;21904;-75
2022/11/19 13:23:34;;;;;;;9.70;7.35;;;;;;;3.18;67.16;100045.48;1677850;85;21113;-73
2022/11/19 13:26:05;;;;;;;10.53;8.00;;;;;;;3.21;67.20;100057.43;1681174;85;21024;-74
2022/11/19 13:28:58;;;;;;;10.38;7.90;;;;;;;3.20;67.04;100072.46;1698630;84;21169;-73
2022/11/19 13:31:53;;;;;;;10.70;8.43;;;;;;;3.20;67.12;100081.70;1709404;84;21671;-73
2022/11/19 13:34:59;;;;;;;10.68;8.48;;;;;;;3.19;67.28;100083.22;1708620;84;21078;-73
2022/11/19 13:38:03;;;;;;;12.53;9.18;;;;;;;3.12;67.12;100078.53;1709586;83;21106;-74
2022/11/19 13:40:44;;;;;;;12.15;9.10;;;;;;;3.10;67.24;100093.28;1709641;83;20976;-73
2022/11/19 13:46:18;;;;;;;12.88;9.35;;;;;;;3.14;67.06;100083.89;1708734;84;21192;-73
2022/11/19 13:49:11;;;;;;;13.05;8.93;;;;;;;3.08;66.80;100086.61;1709538;83;20956;-73
2022/11/19 13:51:52;;;;;;;11.38;8.60;;;;;;;3.09;66.96;100082.41;1709476;83;21171;-72
2022/11/19 13:54:28;;;;;;;11.40;8.88;;;;;;;3.07;67.17;100098.99;1722498;82;21034;-70
2022/11/19 13:56:56;;;;;;;12.18;9.15;;;;;;;3.04;67.34;100106.83;1716271;82;21055;-72
2022/11/19 13:59:38;;;;;;;12.20;8.95;;;;;;;3.02;67.54;100114.66;1699878;84;21114;-72
2022/11/19 14:02:42;;;;;;;12.10;8.53;;;;;;;2.98;67.59;100114.29;1701726;82;21050;-71
2022/11/19 14:06:04;;;;;;;13.10;9.73;;;;;;;2.94;67.50;100127.63;1705775;84;21101;-72
2022/11/19 14:08:49;;;;;;;12.78;9.65;;;;;;;2.94;67.63;100130.27;1692981;84;21098;-72
2022/11/19 14:11:57;;;;;;;11.30;8.43;;;;;;;2.97;67.54;100129.84;1669141;85;21575;-71
2022/11/19 14:26:47;;;;;;;11.85;8.43;;;;;;;2.71;67.19;100180.17;1676576;85;21031;-71
2022/11/19 14:29:28;;;;;;;10.45;7.87;;;;;;;2.72;67.03;100178.63;1684070;84;21887;-72